sensor_id;sensor_type;location;lat;lon;timestamp;P1;durP1;ratioP1;P2;durP2;ratioP2
6902;SDS011;20232;49.408;8.702;2022-08-01T04:01:37;3.57;;;1.80;;
6902;SDS011;20232;49.408;8.702;2022-08-01T04:04:03;2.40;;;2.20;;
6902;SDS011;20232;49.408;8.702;2022-08-01T04:06:30;2.03;;;1.90;;
6902;SDS011;20232;49.408;8.702;2022-08-01T04:08:56;2.63;;;2.27;;
6902;SDS011;20232;49.408;8.702;2022-08-01T04:11:23;3.03;;;1.70;;
6902;SDS011;20232;49.408;8.702;2022-08-01T04:13:50;2.00;;;1.80;;
6902;SDS011;20232;49.408;8.702;2022-08-01T04:16:16;2.10;;;1.90;;
6902;SDS011;20232;49.408;8.702;2022-08-01T04:18:42;2.20;;;2.00;;
6902;SDS011;20232;49.408;8.702;2022-08-01T04:21:08;3.93;;;2.03;;
6902;SDS011;20232;49.408;8.702;2022-08-01T04:23:33;1.93;;;1.73;;
6902;SDS011;20232;49.408;8.702;2022-08-01T04:26:00;3.40;;;1.80;;
6902;SDS011;20232;49.408;8.702;2022-08-01T04:28:29;3.50;;;1.83;;
6902;SDS011;20232;49.408;8.702;2022-08-01T04:30:59;2.53;;;2.00;;
6902;SDS011;20232;49.408;8.702;2022-08-01T04:33:26;2.23;;;1.67;;
6902;SDS011;20232;49.408;8.702;2022-08-01T04:35:54;3.30;;;1.90;;
6902;SDS011;20232;49.408;8.702;2022-08-01T04:38:25;2.40;;;1.73;;
6902;SDS011;20232;49.408;8.702;2022-08-01T04:40:52;3.27;;;2.00;;
6902;SDS011;20232;49.408;8.702;2022-08-01T04:43:19;1.83;;;1.50;;
6902;SDS011;20232;49.408;8.702;2022-08-01T04:45:46;4.03;;;1.90;;
6902;SDS011;20232;49.408;8.702;2022-08-01T04:48:13;3.07;;;1.90;;
6902;SDS011;20232;49.408;8.702;2022-08-01T04:50:41;3.27;;;2.03;;
6902;SDS011;20232;49.408;8.702;2022-08-01T04:53:14;2.00;;;1.80;;
6902;SDS011;20232;49.408;8.702;2022-08-01T04:55:41;1.90;;;1.80;;
6902;SDS011;20232;49.408;8.702;2022-08-01T04:58:08;3.03;;;1.97;;
6902;SDS011;20232;49.408;8.702;2022-08-01T05:00:35;2.90;;;2.00;;
6902;SDS011;20232;49.408;8.702;2022-08-01T05:03:01;2.53;;;1.93;;
6902;SDS011;20232;49.408;8.702;2022-08-01T05:05:27;2.17;;;1.80;;
6902;SDS011;20232;49.408;8.702;2022-08-01T05:07:53;2.70;;;2.10;;
6902;SDS011;20232;49.408;8.702;2022-08-01T05:10:19;1.90;;;1.80;;
6902;SDS011;20232;49.408;8.702;2022-08-01T05:12:44;4.93;;;2.00;;
6902;SDS011;20232;49.408;8.702;2022-08-01T05:15:11;1.93;;;1.73;;
6902;SDS011;20232;49.408;8.702;2022-08-01T05:17:37;2.10;;;1.70;;
6902;SDS011;20232;49.408;8.702;2022-08-01T05:20:02;2.00;;;1.90;;
6902;SDS011;20232;49.408;8.702;2022-08-01T05:22:28;1.90;;;1.80;;
6902;SDS011;20232;49.408;8.702;2022-08-01T05:24:54;2.70;;;1.97;;
6902;SDS011;20232;49.408;8.702;2022-08-01T05:27:20;2.50;;;1.93;;
6902;SDS011;20232;49.408;8.702;2022-08-01T05:29:45;3.17;;;1.93;;
6902;SDS011;20232;49.408;8.702;2022-08-01T05:32:11;3.23;;;1.90;;
6902;SDS011;20232;49.408;8.702;2022-08-01T05:34:37;3.77;;;2.00;;
6902;SDS011;20232;49.408;8.702;2022-08-01T05:37:02;2.33;;;1.70;;
6902;SDS011;20232;49.408;8.702;2022-08-01T05:39:28;2.23;;;2.00;;
6902;SDS011;20232;49.408;8.702;2022-08-01T05:41:53;3.10;;;2.13;;
6902;SDS011;20232;49.408;8.702;2022-08-01T05:44:19;2.80;;;2.40;;
6902;SDS011;20232;49.408;8.702;2022-08-01T05:46:45;2.63;;;1.97;;
6902;SDS011;20232;49.408;8.702;2022-08-01T05:49:11;4.10;;;1.97;;
6902;SDS011;20232;49.408;8.702;2022-08-01T05:51:36;5.27;;;2.33;;
6902;SDS011;20232;49.408;8.702;2022-08-01T05:54:02;2.20;;;2.00;;
6902;SDS011;20232;49.408;8.702;2022-08-01T05:56:28;2.33;;;2.00;;
6902;SDS011;20232;49.408;8.702;2022-08-01T05:58:53;4.53;;;2.07;;
6902;SDS011;20232;49.408;8.702;2022-08-01T06:01:19;2.20;;;2.00;;
6902;SDS011;20232;49.408;8.702;2022-08-01T06:03:45;3.40;;;2.03;;
6902;SDS011;20232;49.408;8.702;2022-08-01T06:06:10;2.83;;;1.90;;
6902;SDS011;20232;49.408;8.702;2022-08-01T06:08:36;2.63;;;2.20;;
6902;SDS011;20232;49.408;8.702;2022-08-01T06:11:02;2.90;;;2.20;;
6902;SDS011;20232;49.408;8.702;2022-08-01T06:13:28;4.47;;;2.00;;
6902;SDS011;20232;49.408;8.702;2022-08-01T06:15:54;3.23;;;2.30;;
6902;SDS011;20232;49.408;8.702;2022-08-01T06:18:19;2.90;;;2.60;;
6902;SDS011;20232;49.408;8.702;2022-08-01T06:20:45;3.90;;;2.27;;
6902;SDS011;20232;49.408;8.702;2022-08-01T06:23:11;2.77;;;2.07;;
6902;SDS011;20232;49.408;8.702;2022-08-01T06:25:36;4.27;;;2.40;;
6902;SDS011;20232;49.408;8.702;2022-08-01T06:28:02;2.40;;;2.20;;
6902;SDS011;20232;49.408;8.702;2022-08-01T06:30:28;4.37;;;2.40;;
6902;SDS011;20232;49.408;8.702;2022-08-01T06:32:54;4.23;;;2.50;;
6902;SDS011;20232;49.408;8.702;2022-08-01T06:35:24;4.70;;;2.43;;
6902;SDS011;20232;49.408;8.702;2022-08-01T06:37:51;6.20;;;2.60;;
6902;SDS011;20232;49.408;8.702;2022-08-01T06:40:16;3.47;;;2.30;;
6902;SDS011;20232;49.408;8.702;2022-08-01T06:42:42;4.07;;;2.50;;
6902;SDS011;20232;49.408;8.702;2022-08-01T06:45:11;3.63;;;2.37;;
6902;SDS011;20232;49.408;8.702;2022-08-01T06:47:37;3.20;;;2.33;;
6902;SDS011;20232;49.408;8.702;2022-08-01T06:50:04;5.90;;;2.83;;
6902;SDS011;20232;49.408;8.702;2022-08-01T06:52:31;5.77;;;2.40;;
6902;SDS011;20232;49.408;8.702;2022-08-01T06:54:57;5.50;;;2.30;;
6902;SDS011;20232;49.408;8.702;2022-08-01T06:57:24;3.40;;;2.57;;
6902;SDS011;20232;49.408;8.702;2022-08-01T06:59:50;4.70;;;2.07;;
6902;SDS011;20232;49.408;8.702;2022-08-01T07:02:15;6.17;;;1.70;;
6902;SDS011;20232;49.408;8.702;2022-08-01T07:04:41;5.87;;;2.37;;
6902;SDS011;20232;49.408;8.702;2022-08-01T07:07:06;5.83;;;2.53;;
6902;SDS011;20232;49.408;8.702;2022-08-01T07:09:32;5.43;;;2.33;;
6902;SDS011;20232;49.408;8.702;2022-08-01T07:11:58;4.67;;;2.40;;
6902;SDS011;20232;49.408;8.702;2022-08-01T07:14:24;7.77;;;2.00;;
6902;SDS011;20232;49.408;8.702;2022-08-01T07:16:49;10.80;;;2.17;;
6902;SDS011;20232;49.408;8.702;2022-08-01T07:19:16;5.47;;;1.90;;
6902;SDS011;20232;49.408;8.702;2022-08-01T07:21:42;6.20;;;2.10;;
6902;SDS011;20232;49.408;8.702;2022-08-01T07:24:09;4.30;;;2.07;;
6902;SDS011;20232;49.408;8.702;2022-08-01T07:26:37;2.33;;;1.57;;
6902;SDS011;20232;49.408;8.702;2022-08-01T07:29:03;4.10;;;2.27;;
6902;SDS011;20232;49.408;8.702;2022-08-01T07:31:29;6.00;;;2.00;;
6902;SDS011;20232;49.408;8.702;2022-08-01T07:33:55;5.87;;;2.37;;
6902;SDS011;20232;49.408;8.702;2022-08-01T07:36:20;5.07;;;1.90;;
6902;SDS011;20232;49.408;8.702;2022-08-01T07:38:46;2.50;;;1.90;;
6902;SDS011;20232;49.408;8.702;2022-08-01T07:41:12;4.40;;;1.90;;
6902;SDS011;20232;49.408;8.702;2022-08-01T07:43:37;4.10;;;1.83;;
6902;SDS011;20232;49.408;8.702;2022-08-01T07:46:04;2.80;;;2.00;;
6902;SDS011;20232;49.408;8.702;2022-08-01T07:48:30;2.30;;;1.80;;
6902;SDS011;20232;49.408;8.702;2022-08-01T07:50:56;4.23;;;1.70;;
6902;SDS011;20232;49.408;8.702;2022-08-01T07:53:21;3.23;;;1.43;;
6902;SDS011;20232;49.408;8.702;2022-08-01T07:55:47;3.37;;;1.50;;
6902;SDS011;20232;49.408;8.702;2022-08-01T07:58:14;3.43;;;1.50;;
6902;SDS011;20232;49.408;8.702;2022-08-01T08:00:40;2.13;;;1.17;;
6902;SDS011;20232;49.408;8.702;2022-08-01T08:03:05;2.73;;;1.40;;
6902;SDS011;20232;49.408;8.702;2022-08-01T08:05:31;2.73;;;1.20;;
6902;SDS011;20232;49.408;8.702;2022-08-01T08:08:06;1.77;;;1.40;;
6902;SDS011;20232;49.408;8.702;2022-08-01T08:10:33;3.50;;;1.40;;
6902;SDS011;20232;49.408;8.702;2022-08-01T08:12:59;3.37;;;1.40;;
6902;SDS011;20232;49.408;8.702;2022-08-01T08:15:26;3.00;;;1.20;;
6902;SDS011;20232;49.408;8.702;2022-08-01T08:17:52;1.67;;;1.00;;
6902;SDS011;20232;49.408;8.702;2022-08-01T08:20:18;1.77;;;1.40;;
6902;SDS011;20232;49.408;8.702;2022-08-01T08:22:43;2.80;;;1.10;;
6902;SDS011;20232;49.408;8.702;2022-08-01T08:25:09;2.27;;;1.50;;
6902;SDS011;20232;49.408;8.702;2022-08-01T08:27:36;2.07;;;1.30;;
6902;SDS011;20232;49.408;8.702;2022-08-01T08:30:02;3.17;;;1.30;;
6902;SDS011;20232;49.408;8.702;2022-08-01T08:32:32;2.00;;;1.20;;
6902;SDS011;20232;49.408;8.702;2022-08-01T08:34:58;2.20;;;1.20;;
6902;SDS011;20232;49.408;8.702;2022-08-01T08:37:23;3.33;;;1.13;;
6902;SDS011;20232;49.408;8.702;2022-08-01T08:39:49;2.20;;;1.20;;
6902;SDS011;20232;49.408;8.702;2022-08-01T08:42:14;3.60;;;1.40;;
6902;SDS011;20232;49.408;8.702;2022-08-01T08:44:40;3.17;;;1.40;;
6902;SDS011;20232;49.408;8.702;2022-08-01T08:47:06;5.17;;;1.40;;
6902;SDS011;20232;49.408;8.702;2022-08-01T08:49:34;2.07;;;1.10;;
6902;SDS011;20232;49.408;8.702;2022-08-01T08:52:01;2.63;;;1.20;;
6902;SDS011;20232;49.408;8.702;2022-08-01T08:54:29;2.80;;;1.17;;
6902;SDS011;20232;49.408;8.702;2022-08-01T08:56:55;1.90;;;1.07;;
6902;SDS011;20232;49.408;8.702;2022-08-01T08:59:22;2.33;;;1.17;;
6902;SDS011;20232;49.408;8.702;2022-08-01T09:01:50;2.40;;;1.10;;
6902;SDS011;20232;49.408;8.702;2022-08-01T09:04:16;1.70;;;1.20;;
6902;SDS011;20232;49.408;8.702;2022-08-01T09:06:42;3.57;;;1.53;;
6902;SDS011;20232;49.408;8.702;2022-08-01T09:09:09;1.73;;;1.17;;
6902;SDS011;20232;49.408;8.702;2022-08-01T09:11:37;1.20;;;1.10;;
6902;SDS011;20232;49.408;8.702;2022-08-01T09:14:16;1.13;;;1.10;;
6902;SDS011;20232;49.408;8.702;2022-08-01T09:16:58;2.17;;;1.20;;
6902;SDS011;20232;49.408;8.702;2022-08-01T09:19:41;1.20;;;0.93;;
6902;SDS011;20232;49.408;8.702;2022-08-01T09:22:12;1.40;;;1.30;;
6902;SDS011;20232;49.408;8.702;2022-08-01T09:24:56;2.70;;;1.27;;
6902;SDS011;20232;49.408;8.702;2022-08-01T09:27:27;2.97;;;1.40;;
6902;SDS011;20232;49.408;8.702;2022-08-01T09:29:53;3.23;;;1.20;;
6902;SDS011;20232;49.408;8.702;2022-08-01T09:32:19;1.23;;;1.10;;
6902;SDS011;20232;49.408;8.702;2022-08-01T09:34:45;2.23;;;1.30;;
6902;SDS011;20232;49.408;8.702;2022-08-01T09:37:13;1.60;;;1.30;;
6902;SDS011;20232;49.408;8.702;2022-08-01T09:39:42;2.00;;;1.47;;
6902;SDS011;20232;49.408;8.702;2022-08-01T09:42:20;3.27;;;1.40;;
6902;SDS011;20232;49.408;8.702;2022-08-01T09:44:46;1.43;;;1.33;;
6902;SDS011;20232;49.408;8.702;2022-08-01T09:47:12;2.40;;;1.10;;
6902;SDS011;20232;49.408;8.702;2022-08-01T09:49:39;1.00;;;1.00;;
6902;SDS011;20232;49.408;8.702;2022-08-01T09:54:57;3.50;;;1.37;;
6902;SDS011;20232;49.408;8.702;2022-08-01T09:57:28;1.20;;;1.10;;
6902;SDS011;20232;49.408;8.702;2022-08-01T09:59:55;1.60;;;1.10;;
6902;SDS011;20232;49.408;8.702;2022-08-01T10:02:35;2.63;;;1.20;;
6902;SDS011;20232;49.408;8.702;2022-08-01T10:05:05;1.93;;;1.13;;
6902;SDS011;20232;49.408;8.702;2022-08-01T10:07:32;1.97;;;1.13;;
6902;SDS011;20232;49.408;8.702;2022-08-01T10:10:09;2.87;;;1.07;;
6902;SDS011;20232;49.408;8.702;2022-08-01T10:12:35;2.43;;;1.10;;
6902;SDS011;20232;49.408;8.702;2022-08-01T10:15:02;3.43;;;1.30;;
6902;SDS011;20232;49.408;8.702;2022-08-01T10:17:29;1.60;;;0.90;;
6902;SDS011;20232;49.408;8.702;2022-08-01T10:19:55;1.10;;;0.87;;
6902;SDS011;20232;49.408;8.702;2022-08-01T10:22:22;1.93;;;1.03;;
6902;SDS011;20232;49.408;8.702;2022-08-01T10:24:50;2.63;;;1.10;;
6902;SDS011;20232;49.408;8.702;2022-08-01T10:27:20;1.47;;;1.00;;
6902;SDS011;20232;49.408;8.702;2022-08-01T10:29:49;1.57;;;1.07;;
6902;SDS011;20232;49.408;8.702;2022-08-01T10:32:21;2.60;;;1.30;;
6902;SDS011;20232;49.408;8.702;2022-08-01T10:34:48;3.07;;;1.20;;
6902;SDS011;20232;49.408;8.702;2022-08-01T10:37:14;3.80;;;1.27;;
6902;SDS011;20232;49.408;8.702;2022-08-01T10:39:42;1.17;;;1.00;;
6902;SDS011;20232;49.408;8.702;2022-08-01T10:42:09;2.57;;;0.90;;
6902;SDS011;20232;49.408;8.702;2022-08-01T10:44:36;2.13;;;1.10;;
6902;SDS011;20232;49.408;8.702;2022-08-01T10:47:12;2.23;;;1.03;;
6902;SDS011;20232;49.408;8.702;2022-08-01T10:49:47;1.40;;;1.00;;
6902;SDS011;20232;49.408;8.702;2022-08-01T10:52:37;2.13;;;1.00;;
6902;SDS011;20232;49.408;8.702;2022-08-01T10:55:06;2.20;;;1.20;;
6902;SDS011;20232;49.408;8.702;2022-08-01T10:57:46;2.43;;;1.30;;
6902;SDS011;20232;49.408;8.702;2022-08-01T11:00:18;4.17;;;1.10;;
6902;SDS011;20232;49.408;8.702;2022-08-01T11:02:59;1.60;;;1.20;;
6902;SDS011;20232;49.408;8.702;2022-08-01T11:05:28;1.70;;;1.00;;
6902;SDS011;20232;49.408;8.702;2022-08-01T11:07:58;3.70;;;1.20;;
6902;SDS011;20232;49.408;8.702;2022-08-01T11:10:37;3.40;;;1.07;;
6902;SDS011;20232;49.408;8.702;2022-08-01T11:13:04;1.03;;;0.90;;
6902;SDS011;20232;49.408;8.702;2022-08-01T11:15:33;2.07;;;1.20;;
6902;SDS011;20232;49.408;8.702;2022-08-01T11:18:00;2.93;;;1.10;;
6902;SDS011;20232;49.408;8.702;2022-08-01T11:20:29;3.60;;;1.17;;
6902;SDS011;20232;49.408;8.702;2022-08-01T11:25:25;2.83;;;1.30;;
6902;SDS011;20232;49.408;8.702;2022-08-01T11:30:46;2.10;;;1.30;;
6902;SDS011;20232;49.408;8.702;2022-08-01T11:33:13;3.63;;;1.30;;
6902;SDS011;20232;49.408;8.702;2022-08-01T11:38:35;1.30;;;1.17;;
6902;SDS011;20232;49.408;8.702;2022-08-01T11:41:24;2.90;;;1.23;;
6902;SDS011;20232;49.408;8.702;2022-08-01T11:43:58;1.57;;;1.00;;
6902;SDS011;20232;49.408;8.702;2022-08-01T11:52:16;3.70;;;1.27;;
6902;SDS011;20232;49.408;8.702;2022-08-01T11:54:50;2.93;;;1.10;;
6902;SDS011;20232;49.408;8.702;2022-08-01T11:57:19;1.87;;;1.20;;
6902;SDS011;20232;49.408;8.702;2022-08-01T11:59:50;1.13;;;1.03;;
6902;SDS011;20232;49.408;8.702;2022-08-01T12:02:25;2.97;;;1.10;;
6902;SDS011;20232;49.408;8.702;2022-08-01T12:04:53;0.80;;;0.80;;
6902;SDS011;20232;49.408;8.702;2022-08-01T12:07:31;4.20;;;1.23;;
6902;SDS011;20232;49.408;8.702;2022-08-01T12:10:05;1.90;;;0.90;;
6902;SDS011;20232;49.408;8.702;2022-08-01T12:12:34;2.63;;;0.90;;
6902;SDS011;20232;49.408;8.702;2022-08-01T12:15:01;1.20;;;1.10;;
6902;SDS011;20232;49.408;8.702;2022-08-01T12:20:11;1.33;;;1.10;;
6902;SDS011;20232;49.408;8.702;2022-08-01T12:22:39;2.07;;;0.93;;
6902;SDS011;20232;49.408;8.702;2022-08-01T12:25:09;2.23;;;1.20;;
6902;SDS011;20232;49.408;8.702;2022-08-01T12:27:45;3.23;;;1.10;;
6902;SDS011;20232;49.408;8.702;2022-08-01T12:30:17;1.43;;;1.07;;
6902;SDS011;20232;49.408;8.702;2022-08-01T12:32:45;2.87;;;1.10;;
6902;SDS011;20232;49.408;8.702;2022-08-01T12:35:16;1.47;;;1.00;;
6902;SDS011;20232;49.408;8.702;2022-08-01T12:37:43;1.77;;;0.80;;
6902;SDS011;20232;49.408;8.702;2022-08-01T12:40:17;2.30;;;0.90;;
6902;SDS011;20232;49.408;8.702;2022-08-01T12:42:48;1.33;;;0.93;;
6902;SDS011;20232;49.408;8.702;2022-08-01T12:45:17;2.03;;;1.10;;
6902;SDS011;20232;49.408;8.702;2022-08-01T12:47:48;1.00;;;0.87;;
6902;SDS011;20232;49.408;8.702;2022-08-01T12:50:20;1.10;;;1.00;;
6902;SDS011;20232;49.408;8.702;2022-08-01T12:52:47;1.23;;;1.07;;
6902;SDS011;20232;49.408;8.702;2022-08-01T12:55:15;1.17;;;1.07;;
6902;SDS011;20232;49.408;8.702;2022-08-01T12:57:43;1.10;;;1.00;;
6902;SDS011;20232;49.408;8.702;2022-08-01T13:02:42;2.27;;;0.90;;
6902;SDS011;20232;49.408;8.702;2022-08-01T13:05:09;2.07;;;1.00;;
6902;SDS011;20232;49.408;8.702;2022-08-01T13:10:15;1.33;;;0.90;;
6902;SDS011;20232;49.408;8.702;2022-08-01T13:12:51;2.40;;;0.87;;
6902;SDS011;20232;49.408;8.702;2022-08-01T13:15:18;1.23;;;0.90;;
6902;SDS011;20232;49.408;8.702;2022-08-01T13:17:49;2.10;;;0.90;;
6902;SDS011;20232;49.408;8.702;2022-08-01T13:23:10;2.57;;;1.20;;
6902;SDS011;20232;49.408;8.702;2022-08-01T13:25:53;0.90;;;0.90;;
6902;SDS011;20232;49.408;8.702;2022-08-01T13:28:24;1.00;;;1.00;;
6902;SDS011;20232;49.408;8.702;2022-08-01T13:31:12;1.70;;;0.90;;
6902;SDS011;20232;49.408;8.702;2022-08-01T13:33:44;2.10;;;1.10;;
6902;SDS011;20232;49.408;8.702;2022-08-01T13:36:11;4.90;;;1.40;;
6902;SDS011;20232;49.408;8.702;2022-08-01T13:38:38;2.53;;;1.07;;
6902;SDS011;20232;49.408;8.702;2022-08-01T13:41:23;1.00;;;1.00;;
6902;SDS011;20232;49.408;8.702;2022-08-01T13:43:48;1.50;;;1.00;;
6902;SDS011;20232;49.408;8.702;2022-08-01T13:46:14;4.23;;;1.27;;
6902;SDS011;20232;49.408;8.702;2022-08-01T13:48:39;2.13;;;1.10;;
6902;SDS011;20232;49.408;8.702;2022-08-01T13:51:05;1.80;;;1.07;;
6902;SDS011;20232;49.408;8.702;2022-08-01T13:53:31;1.00;;;1.00;;
6902;SDS011;20232;49.408;8.702;2022-08-01T13:55:56;1.77;;;1.10;;
6902;SDS011;20232;49.408;8.702;2022-08-01T13:58:25;2.40;;;1.20;;
6902;SDS011;20232;49.408;8.702;2022-08-01T14:00:50;2.37;;;1.20;;
6902;SDS011;20232;49.408;8.702;2022-08-01T14:03:16;1.27;;;1.10;;
6902;SDS011;20232;49.408;8.702;2022-08-01T14:05:42;2.23;;;1.20;;
6902;SDS011;20232;49.408;8.702;2022-08-01T14:08:08;1.57;;;1.00;;
6902;SDS011;20232;49.408;8.702;2022-08-01T14:10:34;1.77;;;0.90;;
6902;SDS011;20232;49.408;8.702;2022-08-01T14:13:00;2.10;;;0.90;;
6902;SDS011;20232;49.408;8.702;2022-08-01T14:15:25;1.10;;;1.00;;
6902;SDS011;20232;49.408;8.702;2022-08-01T14:17:51;2.27;;;0.97;;
6902;SDS011;20232;49.408;8.702;2022-08-01T14:20:17;1.93;;;1.10;;
6902;SDS011;20232;49.408;8.702;2022-08-01T14:22:47;0.90;;;0.90;;
6902;SDS011;20232;49.408;8.702;2022-08-01T14:25:14;1.20;;;1.03;;
6902;SDS011;20232;49.408;8.702;2022-08-01T14:27:39;1.23;;;1.00;;
6902;SDS011;20232;49.408;8.702;2022-08-01T14:30:06;2.67;;;1.10;;
6902;SDS011;20232;49.408;8.702;2022-08-01T14:32:33;4.77;;;0.97;;
6902;SDS011;20232;49.408;8.702;2022-08-01T14:34:59;1.17;;;1.10;;
6902;SDS011;20232;49.408;8.702;2022-08-01T14:37:28;0.80;;;0.80;;
6902;SDS011;20232;49.408;8.702;2022-08-01T14:39:54;1.07;;;0.90;;
6902;SDS011;20232;49.408;8.702;2022-08-01T14:42:20;3.23;;;1.00;;
6902;SDS011;20232;49.408;8.702;2022-08-01T14:44:46;2.13;;;1.10;;
6902;SDS011;20232;49.408;8.702;2022-08-01T14:47:11;2.20;;;1.00;;
6902;SDS011;20232;49.408;8.702;2022-08-01T14:49:37;2.50;;;1.00;;
6902;SDS011;20232;49.408;8.702;2022-08-01T14:52:02;3.93;;;1.20;;
6902;SDS011;20232;49.408;8.702;2022-08-01T14:54:28;1.80;;;1.00;;
6902;SDS011;20232;49.408;8.702;2022-08-01T14:56:53;1.37;;;1.10;;
6902;SDS011;20232;49.408;8.702;2022-08-01T14:59:19;1.90;;;1.17;;
6902;SDS011;20232;49.408;8.702;2022-08-01T15:01:45;3.73;;;1.07;;
6902;SDS011;20232;49.408;8.702;2022-08-01T15:04:10;4.47;;;1.10;;
6902;SDS011;20232;49.408;8.702;2022-08-01T15:06:36;1.93;;;1.30;;
6902;SDS011;20232;49.408;8.702;2022-08-01T15:09:02;1.97;;;1.00;;
6902;SDS011;20232;49.408;8.702;2022-08-01T15:11:28;1.37;;;1.17;;
6902;SDS011;20232;49.408;8.702;2022-08-01T15:13:53;2.33;;;1.20;;
6902;SDS011;20232;49.408;8.702;2022-08-01T15:16:51;0.97;;;0.97;;
6902;SDS011;20232;49.408;8.702;2022-08-01T15:19:17;0.83;;;0.80;;
6902;SDS011;20232;49.408;8.702;2022-08-01T15:21:42;0.93;;;0.90;;
6902;SDS011;20232;49.408;8.702;2022-08-01T15:24:08;3.30;;;1.30;;
6902;SDS011;20232;49.408;8.702;2022-08-01T15:26:34;1.47;;;1.20;;
6902;SDS011;20232;49.408;8.702;2022-08-01T15:29:00;1.50;;;1.10;;
6902;SDS011;20232;49.408;8.702;2022-08-01T15:31:26;4.80;;;1.60;;
6902;SDS011;20232;49.408;8.702;2022-08-01T15:33:51;2.53;;;1.10;;
6902;SDS011;20232;49.408;8.702;2022-08-01T15:36:17;1.17;;;1.10;;
6902;SDS011;20232;49.408;8.702;2022-08-01T15:38:42;3.67;;;1.00;;
6902;SDS011;20232;49.408;8.702;2022-08-01T15:41:08;2.60;;;1.23;;
6902;SDS011;20232;49.408;8.702;2022-08-01T15:43:34;1.93;;;0.90;;
6902;SDS011;20232;49.408;8.702;2022-08-01T15:45:59;2.77;;;1.10;;
6902;SDS011;20232;49.408;8.702;2022-08-01T15:48:26;2.00;;;1.17;;
6902;SDS011;20232;49.408;8.702;2022-08-01T15:50:51;1.87;;;1.20;;
6902;SDS011;20232;49.408;8.702;2022-08-01T15:53:17;2.50;;;1.13;;
6902;SDS011;20232;49.408;8.702;2022-08-01T15:55:43;1.90;;;1.20;;
6902;SDS011;20232;49.408;8.702;2022-08-01T15:58:08;1.53;;;1.10;;
6902;SDS011;20232;49.408;8.702;2022-08-01T16:00:34;2.40;;;1.10;;
6902;SDS011;20232;49.408;8.702;2022-08-01T16:03:00;2.00;;;1.30;;
6902;SDS011;20232;49.408;8.702;2022-08-01T16:05:25;2.80;;;1.10;;
6902;SDS011;20232;49.408;8.702;2022-08-01T16:07:51;2.93;;;1.00;;
6902;SDS011;20232;49.408;8.702;2022-08-01T16:10:17;2.37;;;1.10;;
6902;SDS011;20232;49.408;8.702;2022-08-01T16:12:42;6.30;;;1.53;;
6902;SDS011;20232;49.408;8.702;2022-08-01T16:15:08;1.67;;;1.10;;
6902;SDS011;20232;49.408;8.702;2022-08-01T16:17:34;1.60;;;0.90;;
6902;SDS011;20232;49.408;8.702;2022-08-01T16:19:59;1.57;;;1.20;;
6902;SDS011;20232;49.408;8.702;2022-08-01T16:22:25;2.67;;;1.60;;
6902;SDS011;20232;49.408;8.702;2022-08-01T16:24:51;1.20;;;1.10;;
6902;SDS011;20232;49.408;8.702;2022-08-01T16:27:16;4.83;;;1.10;;
6902;SDS011;20232;49.408;8.702;2022-08-01T16:29:42;2.37;;;0.90;;
6902;SDS011;20232;49.408;8.702;2022-08-01T16:32:08;2.07;;;0.93;;
6902;SDS011;20232;49.408;8.702;2022-08-01T16:34:33;2.77;;;1.10;;
6902;SDS011;20232;49.408;8.702;2022-08-01T16:36:59;1.60;;;0.90;;
6902;SDS011;20232;49.408;8.702;2022-08-01T16:39:25;2.20;;;0.93;;
6902;SDS011;20232;49.408;8.702;2022-08-01T16:41:51;1.47;;;1.00;;
6902;SDS011;20232;49.408;8.702;2022-08-01T16:44:16;1.10;;;1.07;;
6902;SDS011;20232;49.408;8.702;2022-08-01T16:46:42;1.00;;;1.00;;
6902;SDS011;20232;49.408;8.702;2022-08-01T16:49:08;2.10;;;1.20;;
6902;SDS011;20232;49.408;8.702;2022-08-01T16:51:34;2.00;;;1.10;;
6902;SDS011;20232;49.408;8.702;2022-08-01T16:54:00;2.03;;;1.10;;
6902;SDS011;20232;49.408;8.702;2022-08-01T16:56:26;1.77;;;1.13;;
6902;SDS011;20232;49.408;8.702;2022-08-01T16:58:52;3.80;;;1.10;;
6902;SDS011;20232;49.408;8.702;2022-08-01T17:01:17;3.27;;;1.30;;
6902;SDS011;20232;49.408;8.702;2022-08-01T17:03:43;2.53;;;1.17;;
6902;SDS011;20232;49.408;8.702;2022-08-01T17:06:09;3.37;;;1.50;;
6902;SDS011;20232;49.408;8.702;2022-08-01T17:08:35;1.23;;;1.20;;
6902;SDS011;20232;49.408;8.702;2022-08-01T17:11:01;3.80;;;1.20;;
6902;SDS011;20232;49.408;8.702;2022-08-01T17:13:26;1.60;;;1.20;;
6902;SDS011;20232;49.408;8.702;2022-08-01T17:15:52;3.53;;;1.23;;
6902;SDS011;20232;49.408;8.702;2022-08-01T17:18:18;2.67;;;1.20;;
6902;SDS011;20232;49.408;8.702;2022-08-01T17:20:43;2.10;;;1.40;;
6902;SDS011;20232;49.408;8.702;2022-08-01T17:23:11;3.57;;;1.40;;
6902;SDS011;20232;49.408;8.702;2022-08-01T17:25:41;1.27;;;1.03;;
6902;SDS011;20232;49.408;8.702;2022-08-01T17:28:07;1.10;;;1.00;;
6902;SDS011;20232;49.408;8.702;2022-08-01T17:30:34;3.10;;;1.27;;
6902;SDS011;20232;49.408;8.702;2022-08-01T17:33:01;2.40;;;1.17;;
6902;SDS011;20232;49.408;8.702;2022-08-01T17:35:27;1.80;;;1.23;;
6902;SDS011;20232;49.408;8.702;2022-08-01T17:37:52;2.57;;;1.37;;
6902;SDS011;20232;49.408;8.702;2022-08-01T17:40:18;3.10;;;1.10;;
6902;SDS011;20232;49.408;8.702;2022-08-01T17:42:43;2.60;;;1.23;;
6902;SDS011;20232;49.408;8.702;2022-08-01T17:45:10;1.63;;;1.03;;
6902;SDS011;20232;49.408;8.702;2022-08-01T17:47:37;9.27;;;1.60;;
6902;SDS011;20232;49.408;8.702;2022-08-01T17:50:03;5.80;;;1.20;;
6902;SDS011;20232;49.408;8.702;2022-08-01T17:52:31;1.63;;;1.00;;
6902;SDS011;20232;49.408;8.702;2022-08-01T17:54:57;3.23;;;1.10;;
6902;SDS011;20232;49.408;8.702;2022-08-01T17:57:24;2.60;;;1.40;;
6902;SDS011;20232;49.408;8.702;2022-08-01T17:59:50;2.20;;;1.00;;
6902;SDS011;20232;49.408;8.702;2022-08-01T18:02:15;4.13;;;1.10;;
6902;SDS011;20232;49.408;8.702;2022-08-01T18:04:41;2.63;;;1.10;;
6902;SDS011;20232;49.408;8.702;2022-08-01T18:07:07;1.07;;;0.90;;
6902;SDS011;20232;49.408;8.702;2022-08-01T18:09:33;2.90;;;1.20;;
6902;SDS011;20232;49.408;8.702;2022-08-01T18:11:59;1.60;;;1.00;;
6902;SDS011;20232;49.408;8.702;2022-08-01T18:14:25;2.53;;;1.03;;
6902;SDS011;20232;49.408;8.702;2022-08-01T18:16:51;1.87;;;0.97;;
6902;SDS011;20232;49.408;8.702;2022-08-01T18:19:17;3.13;;;1.03;;
6902;SDS011;20232;49.408;8.702;2022-08-01T18:21:45;2.80;;;1.10;;
6902;SDS011;20232;49.408;8.702;2022-08-01T18:24:14;1.60;;;1.20;;
6902;SDS011;20232;49.408;8.702;2022-08-01T18:26:41;1.97;;;1.40;;
6902;SDS011;20232;49.408;8.702;2022-08-01T18:29:08;2.57;;;1.80;;
6902;SDS011;20232;49.408;8.702;2022-08-01T18:31:34;1.47;;;1.20;;
6902;SDS011;20232;49.408;8.702;2022-08-01T18:34:00;4.80;;;1.30;;
6902;SDS011;20232;49.408;8.702;2022-08-01T18:36:26;1.30;;;1.10;;
6902;SDS011;20232;49.408;8.702;2022-08-01T18:38:52;2.37;;;1.33;;
6902;SDS011;20232;49.408;8.702;2022-08-01T18:41:18;2.33;;;1.00;;
6902;SDS011;20232;49.408;8.702;2022-08-01T18:43:44;1.00;;;0.90;;
6902;SDS011;20232;49.408;8.702;2022-08-01T18:46:09;1.10;;;1.00;;
6902;SDS011;20232;49.408;8.702;2022-08-01T18:48:35;1.87;;;1.13;;
6902;SDS011;20232;49.408;8.702;2022-08-01T18:51:01;2.53;;;1.40;;
6902;SDS011;20232;49.408;8.702;2022-08-01T18:53:27;1.90;;;1.10;;
6902;SDS011;20232;49.408;8.702;2022-08-01T18:55:53;2.30;;;1.30;;
6902;SDS011;20232;49.408;8.702;2022-08-01T18:58:19;2.10;;;1.30;;
6902;SDS011;20232;49.408;8.702;2022-08-01T19:00:44;3.60;;;1.20;;
6902;SDS011;20232;49.408;8.702;2022-08-01T19:03:10;3.43;;;1.00;;
6902;SDS011;20232;49.408;8.702;2022-08-01T19:05:37;2.67;;;1.20;;
6902;SDS011;20232;49.408;8.702;2022-08-01T19:08:03;1.93;;;1.10;;
6902;SDS011;20232;49.408;8.702;2022-08-01T19:10:29;1.90;;;1.17;;
6902;SDS011;20232;49.408;8.702;2022-08-01T19:12:55;1.90;;;1.20;;
6902;SDS011;20232;49.408;8.702;2022-08-01T19:15:20;1.60;;;1.00;;
6902;SDS011;20232;49.408;8.702;2022-08-01T19:17:46;2.87;;;1.20;;
6902;SDS011;20232;49.408;8.702;2022-08-01T19:20:11;1.83;;;1.40;;
6902;SDS011;20232;49.408;8.702;2022-08-01T19:22:37;1.20;;;1.10;;
6902;SDS011;20232;49.408;8.702;2022-08-01T19:25:03;3.00;;;1.40;;
6902;SDS011;20232;49.408;8.702;2022-08-01T19:27:29;2.13;;;1.37;;
6902;SDS011;20232;49.408;8.702;2022-08-01T19:29:57;1.67;;;1.20;;